createdAt,value
2018-04-08T00:00:31.087Z,5.44
2018-04-08T00:01:31.154Z,5.48
2018-04-08T00:02:31.094Z,5.56
2018-04-08T00:03:31.159Z,5.59
2018-04-08T00:04:31.088Z,5.62
2018-04-08T00:05:31.166Z,5.63
2018-04-08T00:06:31.093Z,5.59
2018-04-08T00:07:31.160Z,5.56
2018-04-08T00:09:31.196Z,5.49
2018-04-08T00:10:31.161Z,5.48
2018-04-08T00:11:31.098Z,5.41
2018-04-08T00:12:31.163Z,5.37
2018-04-08T00:13:31.097Z,5.33
2018-04-08T00:14:31.136Z,5.33
2018-04-08T00:15:31.162Z,5.30
2018-04-08T00:16:31.097Z,5.29
2018-04-08T00:17:31.095Z,5.26
2018-04-08T00:18:31.069Z,5.23
2018-04-08T00:19:31.158Z,5.21
2018-04-08T00:20:31.160Z,5.16
2018-04-08T00:21:31.094Z,5.11
2018-04-08T00:22:31.071Z,5.06
2018-04-08T00:23:31.071Z,5.03
2018-04-08T00:24:31.072Z,5.02
2018-04-08T00:25:31.163Z,5.00
2018-04-08T00:26:31.075Z,4.99
2018-04-08T00:27:31.157Z,5.00
2018-04-08T00:28:31.238Z,5.02
2018-04-08T00:29:31.178Z,5.04
2018-04-08T00:30:31.103Z,4.98
2018-04-08T00:31:31.175Z,4.95
2018-04-08T00:32:31.174Z,5.02
2018-04-08T00:33:31.178Z,5.07
2018-04-08T00:34:31.176Z,5.10
2018-04-08T00:35:31.108Z,5.14
2018-04-08T00:36:31.188Z,5.16
2018-04-08T00:37:31.114Z,5.10
2018-04-08T00:38:31.181Z,5.07
2018-04-08T00:39:31.178Z,5.02
2018-04-08T00:40:31.182Z,4.99
2018-04-08T00:41:31.118Z,4.98
2018-04-08T00:42:31.180Z,4.92
2018-04-08T00:43:31.111Z,4.95
2018-04-08T00:44:31.109Z,4.95
2018-04-08T00:45:31.185Z,5.04
2018-04-08T00:46:31.115Z,5.09
2018-04-08T00:47:31.107Z,5.14
2018-04-08T00:48:31.156Z,5.15
2018-04-08T00:49:31.155Z,5.09
2018-04-08T00:50:31.238Z,5.06
2018-04-08T00:51:31.089Z,5.02
2018-04-08T00:52:31.118Z,4.98
2018-04-08T00:53:31.216Z,4.93
2018-04-08T00:54:31.228Z,4.91
2018-04-08T00:55:31.149Z,4.88
2018-04-08T00:56:31.207Z,4.84
2018-04-08T00:57:31.202Z,4.87
2018-04-08T00:58:31.057Z,4.91
2018-04-08T00:59:31.062Z,4.88
2018-04-08T01:00:31.123Z,4.92
2018-04-08T01:01:31.083Z,4.93
2018-04-08T01:02:31.122Z,4.91
2018-04-08T01:03:31.085Z,4.88
2018-04-08T01:04:31.130Z,4.85
2018-04-08T01:05:31.065Z,4.87
2018-04-08T01:06:31.170Z,4.93
2018-04-08T01:07:31.180Z,4.95
2018-04-08T01:08:31.193Z,4.91
2018-04-08T01:09:31.232Z,4.85
2018-04-08T01:10:31.143Z,4.81
2018-04-08T01:11:31.194Z,4.73
2018-04-08T01:12:31.220Z,4.71
2018-04-08T01:13:31.216Z,4.70
2018-04-08T01:14:31.135Z,4.66
2018-04-08T01:15:31.240Z,4.63
2018-04-08T01:16:31.266Z,4.60
2018-04-08T01:17:31.210Z,4.55
2018-04-08T01:18:31.203Z,4.48
2018-04-08T01:19:31.135Z,4.44
2018-04-08T01:20:31.138Z,4.41
2018-04-08T01:21:31.206Z,4.39
2018-04-08T01:22:31.207Z,4.36
2018-04-08T01:23:31.170Z,4.32
2018-04-08T01:24:31.164Z,4.37
2018-04-08T01:25:31.141Z,4.47
2018-04-08T01:26:31.140Z,4.57
2018-04-08T01:27:31.270Z,4.71
2018-04-08T01:28:31.298Z,4.78
2018-04-08T01:29:31.234Z,4.89
2018-04-08T01:30:31.172Z,4.95
2018-04-08T01:31:31.213Z,5.03
2018-04-08T01:32:31.150Z,5.02
2018-04-08T01:33:31.177Z,4.99
2018-04-08T01:34:31.268Z,4.93
2018-04-08T01:35:31.235Z,4.91
2018-04-08T01:36:31.111Z,4.88
2018-04-08T01:37:31.237Z,4.84
2018-04-08T01:38:31.178Z,4.77
2018-04-08T01:39:31.214Z,4.71
2018-04-08T01:40:31.181Z,4.70
2018-04-08T01:41:31.276Z,4.71
2018-04-08T01:42:31.156Z,4.75
2018-04-08T01:43:31.195Z,4.77
2018-04-08T01:44:31.119Z,4.78
2018-04-08T01:45:31.278Z,4.78
2018-04-08T01:46:31.256Z,4.88
2018-04-08T01:47:31.186Z,4.89
2018-04-08T01:48:31.151Z,4.93
2018-04-08T01:49:31.155Z,4.98
2018-04-08T01:50:31.157Z,5.06
2018-04-08T01:51:31.159Z,5.19
2018-04-08T01:52:31.158Z,5.27
2018-04-08T01:53:31.154Z,5.37
2018-04-08T01:54:31.158Z,5.42
2018-04-08T01:55:31.228Z,5.45
2018-04-08T01:56:31.160Z,5.48
2018-04-08T01:57:31.159Z,5.46
2018-04-08T01:58:31.146Z,5.49
2018-04-08T01:59:31.225Z,5.49
2018-04-08T02:00:31.147Z,5.46
2018-04-08T02:01:31.226Z,5.46
2018-04-08T02:02:31.287Z,5.35
2018-04-08T02:03:31.199Z,5.26
2018-04-08T02:04:31.200Z,5.19
2018-04-08T02:05:31.138Z,5.11
2018-04-08T02:06:31.229Z,5.06
2018-04-08T02:07:31.268Z,4.96
2018-04-08T02:08:31.242Z,4.91
2018-04-08T02:09:31.322Z,4.87
2018-04-08T02:10:31.173Z,4.89
2018-04-08T02:11:31.137Z,4.98
2018-04-08T02:12:31.252Z,5.04
2018-04-08T02:13:31.203Z,5.07
2018-04-08T02:14:31.245Z,5.07
2018-04-08T02:15:31.176Z,5.06
2018-04-08T02:16:31.215Z,5.00
2018-04-08T02:17:31.266Z,4.99
2018-04-08T02:18:31.277Z,4.93
2018-04-08T02:19:31.292Z,4.85
2018-04-08T02:20:31.199Z,4.84
2018-04-08T02:21:31.273Z,4.77
2018-04-08T02:22:31.210Z,4.74
2018-04-08T02:23:31.215Z,4.67
2018-04-08T02:24:31.182Z,4.63
2018-04-08T02:25:31.241Z,4.57
2018-04-08T02:26:31.162Z,4.52
2018-04-08T02:27:31.213Z,4.46
2018-04-08T02:28:31.275Z,4.37
2018-04-08T02:29:31.287Z,4.33
2018-04-08T02:30:31.248Z,4.25
2018-04-08T02:31:31.288Z,4.24
2018-04-08T02:32:31.288Z,4.26
2018-04-08T02:33:31.224Z,4.39
2018-04-08T02:34:31.168Z,4.50
2018-04-08T02:35:31.263Z,4.63
2018-04-08T02:36:31.231Z,4.70
2018-04-08T02:37:31.284Z,4.73
2018-04-08T02:38:31.258Z,4.74
2018-04-08T02:39:31.255Z,4.81
2018-04-08T02:40:31.260Z,4.78
2018-04-08T02:41:31.204Z,4.71
2018-04-08T02:42:31.260Z,4.67
2018-04-08T02:43:31.263Z,4.62
2018-04-08T02:44:31.258Z,4.54
2018-04-08T02:45:31.193Z,4.48
2018-04-08T02:46:31.259Z,4.43
2018-04-08T02:47:31.187Z,4.35
2018-04-08T02:48:31.213Z,4.39
2018-04-08T02:49:31.189Z,4.50
2018-04-08T02:50:31.265Z,4.62
2018-04-08T02:51:31.280Z,4.70
2018-04-08T02:52:31.147Z,4.77
2018-04-08T02:53:31.265Z,4.84
2018-04-08T02:54:31.195Z,4.81
2018-04-08T02:55:31.191Z,4.73
2018-04-08T02:56:31.270Z,4.64
2018-04-08T02:57:31.272Z,4.60
2018-04-08T02:58:31.262Z,4.54
2018-04-08T02:59:31.236Z,4.48
2018-04-08T03:00:31.261Z,4.44
2018-04-08T03:01:31.139Z,4.36
2018-04-08T03:02:31.258Z,4.33
2018-04-08T03:03:31.229Z,4.35
2018-04-08T03:04:31.232Z,4.35
2018-04-08T03:05:31.172Z,4.39
2018-04-08T03:06:31.259Z,4.37
2018-04-08T03:07:31.142Z,4.40
2018-04-08T03:08:31.268Z,4.36
2018-04-08T03:09:31.231Z,4.39
2018-04-08T03:10:31.206Z,4.37
2018-04-08T03:11:31.256Z,4.35
2018-04-08T03:12:31.264Z,4.32
2018-04-08T03:13:31.175Z,4.26
2018-04-08T03:14:31.206Z,4.18
2018-04-08T03:15:31.259Z,4.12
2018-04-08T03:16:31.168Z,4.06
2018-04-08T03:17:31.250Z,4.00
2018-04-08T03:18:31.210Z,3.96
2018-04-08T03:19:31.277Z,3.92
2018-04-08T03:20:31.298Z,3.89
2018-04-08T03:21:31.251Z,3.84
2018-04-08T03:22:31.183Z,3.92
2018-04-08T03:23:31.244Z,3.99
2018-04-08T03:24:31.184Z,4.00
2018-04-08T03:25:31.338Z,4.00
2018-04-08T03:26:31.179Z,4.00
2018-04-08T03:27:31.280Z,3.99
2018-04-08T03:28:31.211Z,3.96
2018-04-08T03:29:31.288Z,3.96
2018-04-08T03:30:31.216Z,3.93
2018-04-08T03:31:31.289Z,3.92
2018-04-08T03:32:31.249Z,3.84
2018-04-08T03:33:31.239Z,3.78
2018-04-08T03:34:31.327Z,3.73
2018-04-08T03:35:31.218Z,3.69
2018-04-08T03:36:31.291Z,3.69
2018-04-08T03:37:31.223Z,3.74
2018-04-08T03:38:31.224Z,3.76
2018-04-08T03:39:31.220Z,3.77
2018-04-08T03:40:31.287Z,3.78
2018-04-08T03:41:31.227Z,3.77
2018-04-08T03:42:31.254Z,3.84
2018-04-08T03:43:31.296Z,3.89
2018-04-08T03:44:31.295Z,3.97
2018-04-08T03:45:31.394Z,4.01
2018-04-08T03:46:31.339Z,4.04
2018-04-08T03:47:31.225Z,4.15
2018-04-08T03:48:31.302Z,4.19
2018-04-08T03:49:31.227Z,4.22
2018-04-08T03:50:31.300Z,4.21
2018-04-08T03:51:31.304Z,4.18
2018-04-08T03:52:31.232Z,4.15
2018-04-08T03:53:31.188Z,4.10
2018-04-08T03:54:31.238Z,4.04
2018-04-08T03:55:31.301Z,3.97
2018-04-08T03:56:31.187Z,3.89
2018-04-08T03:57:31.305Z,3.83
2018-04-08T03:58:31.304Z,3.80
2018-04-08T03:59:31.353Z,3.85
2018-04-08T04:00:31.237Z,3.84
2018-04-08T04:01:31.304Z,3.84
2018-04-08T04:02:31.222Z,3.92
2018-04-08T04:03:31.207Z,3.96
2018-04-08T04:04:31.263Z,3.97
2018-04-08T04:05:31.305Z,4.00
2018-04-08T04:06:31.332Z,3.99
2018-04-08T04:07:31.327Z,3.97
2018-04-08T04:08:31.243Z,3.93
2018-04-08T04:09:31.310Z,3.90
2018-04-08T04:10:31.243Z,3.83
2018-04-08T04:11:31.238Z,3.80
2018-04-08T04:12:31.310Z,3.74
2018-04-08T04:13:31.242Z,3.68
2018-04-08T04:14:31.311Z,3.80
2018-04-08T04:15:31.244Z,3.97
2018-04-08T04:16:31.339Z,4.12
2018-04-08T04:17:31.241Z,4.24
2018-04-08T04:18:31.245Z,4.29
2018-04-08T04:19:31.318Z,4.40
2018-04-08T04:20:31.248Z,4.52
2018-04-08T04:21:31.314Z,4.63
2018-04-08T04:22:31.322Z,4.73
2018-04-08T04:23:31.249Z,4.77
2018-04-08T04:24:31.318Z,4.80
2018-04-08T04:25:31.245Z,4.80
2018-04-08T04:26:31.254Z,4.85
2018-04-08T04:27:31.320Z,4.88
2018-04-08T04:28:31.328Z,4.87
2018-04-08T04:29:31.286Z,4.88
2018-04-08T04:30:31.252Z,4.82
2018-04-08T04:31:31.323Z,4.77
2018-04-08T04:32:31.361Z,4.71
2018-04-08T04:33:31.328Z,4.69
2018-04-08T04:34:31.255Z,4.73
2018-04-08T04:35:31.325Z,4.74
2018-04-08T04:36:31.261Z,4.73
2018-04-08T04:37:31.346Z,4.71
2018-04-08T04:38:31.283Z,4.77
2018-04-08T04:39:31.289Z,4.84
2018-04-08T04:40:31.366Z,4.92
2018-04-08T04:41:31.306Z,4.96
2018-04-08T04:42:31.294Z,5.02
2018-04-08T04:43:31.257Z,5.09
2018-04-08T04:44:31.304Z,5.10
2018-04-08T04:45:31.360Z,5.14
2018-04-08T04:46:31.254Z,5.16
2018-04-08T04:47:31.337Z,5.23
2018-04-08T04:48:31.354Z,5.27
2018-04-08T04:49:31.331Z,5.33
2018-04-08T04:50:31.352Z,5.30
2018-04-08T04:51:31.340Z,5.26
2018-04-08T04:52:31.358Z,5.21
2018-04-08T04:53:31.331Z,5.16
2018-04-08T04:54:31.240Z,5.11
2018-04-08T04:55:31.312Z,5.06
2018-04-08T04:56:31.282Z,5.02
2018-04-08T04:57:31.407Z,4.95
2018-04-08T04:58:31.340Z,4.93
2018-04-08T04:59:31.358Z,4.93
2018-04-08T05:00:31.298Z,4.89
2018-04-08T05:01:31.278Z,4.88
2018-04-08T05:02:31.362Z,4.91
2018-04-08T05:03:31.365Z,4.89
2018-04-08T05:04:31.378Z,4.85
2018-04-08T05:05:31.370Z,4.82
2018-04-08T05:06:31.344Z,4.81
2018-04-08T05:07:31.369Z,4.81
2018-04-08T05:08:31.364Z,4.81
2018-04-08T05:09:31.345Z,4.77
2018-04-08T05:10:31.314Z,4.74
2018-04-08T05:11:31.251Z,4.71
2018-04-08T05:12:31.378Z,4.70
2018-04-08T05:13:31.247Z,4.67
2018-04-08T05:14:31.324Z,4.66
2018-04-08T05:15:31.371Z,4.63
2018-04-08T05:16:31.314Z,4.62
2018-04-08T05:17:31.308Z,4.60
2018-04-08T05:18:31.337Z,4.60
2018-04-08T05:19:31.289Z,4.63
2018-04-08T05:20:31.282Z,4.63
2018-04-08T05:21:31.335Z,4.66
2018-04-08T05:22:31.232Z,4.66
2018-04-08T05:23:31.339Z,4.67
2018-04-08T05:24:31.338Z,4.69
2018-04-08T05:25:31.340Z,4.74
2018-04-08T05:26:31.340Z,4.78
2018-04-08T05:27:31.237Z,4.82
2018-04-08T05:28:31.214Z,4.88
2018-04-08T05:29:31.279Z,4.89
2018-04-08T05:30:31.279Z,4.93
2018-04-08T05:31:31.337Z,4.93
2018-04-08T05:32:31.304Z,4.96
2018-04-08T05:33:31.275Z,4.99
2018-04-08T05:34:31.334Z,5.06
2018-04-08T05:35:31.220Z,5.14
2018-04-08T05:36:31.342Z,5.15
2018-04-08T05:37:31.337Z,5.15
2018-04-08T05:38:31.309Z,5.21
2018-04-08T05:39:31.344Z,5.29
2018-04-08T05:40:31.350Z,5.35
2018-04-08T05:41:31.301Z,5.41
2018-04-08T05:42:31.263Z,5.45
2018-04-08T05:43:31.392Z,5.51
2018-04-08T05:44:31.265Z,5.59
2018-04-08T05:45:31.234Z,5.62
2018-04-08T05:46:31.300Z,5.64
2018-04-08T05:47:31.273Z,5.68
2018-04-08T05:48:31.358Z,5.74
2018-04-08T05:49:31.286Z,5.79
2018-04-08T05:50:31.237Z,5.79
2018-04-08T05:51:31.361Z,5.82
2018-04-08T05:52:31.335Z,5.84
2018-04-08T05:53:31.308Z,5.92
2018-04-08T05:54:31.254Z,6.08
2018-04-08T05:55:31.312Z,6.25
2018-04-08T05:56:31.290Z,6.38
2018-04-08T05:57:31.366Z,6.47
2018-04-08T05:58:31.379Z,6.59
2018-04-08T05:59:31.376Z,6.71
2018-04-08T06:00:31.375Z,6.87
2018-04-08T06:01:31.376Z,7.02
2018-04-08T06:02:31.375Z,7.15
2018-04-08T06:03:31.376Z,7.29
2018-04-08T06:04:31.308Z,7.37
2018-04-08T06:05:31.383Z,7.45
2018-04-08T06:06:31.380Z,7.58
2018-04-08T06:07:31.312Z,7.75
2018-04-08T06:08:31.312Z,7.98
2018-04-08T06:09:31.413Z,8.06
2018-04-08T06:10:31.281Z,8.19
2018-04-08T06:11:31.289Z,8.26
2018-04-08T06:12:31.285Z,8.33
2018-04-08T06:13:31.407Z,8.45
2018-04-08T06:14:31.408Z,8.57
2018-04-08T06:15:31.406Z,8.65
2018-04-08T06:16:31.354Z,8.78
2018-04-08T06:17:31.423Z,8.87
2018-04-08T06:18:31.425Z,8.89
2018-04-08T06:19:31.192Z,8.96
2018-04-08T06:20:31.281Z,9.05
2018-04-08T06:21:31.250Z,9.09
2018-04-08T06:22:31.192Z,9.18
2018-04-08T06:23:31.319Z,9.16
2018-04-08T06:24:31.307Z,9.23
2018-04-08T06:25:31.240Z,9.22
2018-04-08T06:26:31.286Z,9.36
2018-04-08T06:27:31.199Z,9.38
2018-04-08T06:28:31.195Z,9.49
2018-04-08T06:29:31.364Z,9.61
2018-04-08T06:30:31.392Z,9.62
2018-04-08T06:31:31.440Z,9.73
2018-04-08T06:32:31.408Z,9.89
2018-04-08T06:33:31.369Z,10.01
2018-04-08T06:34:31.354Z,10.08
2018-04-08T06:35:31.368Z,10.21
2018-04-08T06:36:31.432Z,10.25
2018-04-08T06:37:31.401Z,10.38
2018-04-08T06:38:31.365Z,10.39
2018-04-08T06:39:31.421Z,10.45
2018-04-08T06:40:31.429Z,10.56
2018-04-08T06:41:31.432Z,10.68
2018-04-08T06:42:31.422Z,10.75
2018-04-08T06:43:31.439Z,10.86
2018-04-08T06:44:31.435Z,10.88
2018-04-08T06:45:31.358Z,10.87
2018-04-08T06:46:31.366Z,10.93
2018-04-08T06:47:31.341Z,11.02
2018-04-08T06:48:31.433Z,11.11
2018-04-08T06:49:31.277Z,11.20
2018-04-08T06:50:31.367Z,11.17
2018-04-08T06:51:31.270Z,11.22
2018-04-08T06:52:31.391Z,11.16
2018-04-08T06:53:31.275Z,11.18
2018-04-08T06:54:31.310Z,11.24
2018-04-08T06:55:31.325Z,11.14
2018-04-08T06:56:31.316Z,11.16
2018-04-08T06:57:31.276Z,11.21
2018-04-08T06:58:31.317Z,11.35
2018-04-08T06:59:31.411Z,11.47
2018-04-08T07:00:31.343Z,11.53
2018-04-08T07:01:31.408Z,11.64
2018-04-08T07:02:31.341Z,11.72
2018-04-08T07:03:31.413Z,11.65
2018-04-08T07:04:31.408Z,11.61
2018-04-08T07:05:31.346Z,11.58
2018-04-08T07:06:31.417Z,11.56
2018-04-08T07:07:31.346Z,11.65
2018-04-08T07:08:31.414Z,11.72
2018-04-08T07:09:31.347Z,11.89
2018-04-08T07:10:31.420Z,12.03
2018-04-08T07:11:31.418Z,12.18
2018-04-08T07:12:31.420Z,12.24
2018-04-08T07:13:31.350Z,12.33
2018-04-08T07:14:31.350Z,12.42
2018-04-08T07:15:31.355Z,12.43
2018-04-08T07:16:31.352Z,12.53
2018-04-08T07:17:31.304Z,12.62
2018-04-08T07:18:31.456Z,12.76
2018-04-08T07:19:31.325Z,12.87
2018-04-08T07:20:31.451Z,13.00
2018-04-08T07:21:31.464Z,13.09
2018-04-08T07:22:31.389Z,13.14
2018-04-08T07:23:31.420Z,13.24
2018-04-08T07:24:31.497Z,13.34
2018-04-08T07:25:31.426Z,13.39
2018-04-08T07:26:31.447Z,13.49
2018-04-08T07:27:31.330Z,13.51
2018-04-08T07:28:31.442Z,13.64
2018-04-08T07:29:31.391Z,13.68
2018-04-08T07:30:31.398Z,13.75
2018-04-08T07:31:31.488Z,13.73
2018-04-08T07:32:31.492Z,13.72
2018-04-08T07:33:31.336Z,13.64
2018-04-08T07:34:31.452Z,13.72
2018-04-08T07:35:31.435Z,13.66
2018-04-08T07:36:31.433Z,13.61
2018-04-08T07:37:31.399Z,13.51
2018-04-08T07:38:31.393Z,13.49
2018-04-08T07:39:31.391Z,13.56
2018-04-08T07:40:31.408Z,13.50
2018-04-08T07:41:31.357Z,13.49
2018-04-08T07:42:31.464Z,13.65
2018-04-08T07:43:31.401Z,13.86
2018-04-08T07:44:31.399Z,14.03
2018-04-08T07:45:31.414Z,14.11
2018-04-08T07:46:31.459Z,14.25
2018-04-08T07:47:31.440Z,14.43
2018-04-08T07:48:31.418Z,14.51
2018-04-08T07:49:31.430Z,14.71
2018-04-08T07:50:31.428Z,14.72
2018-04-08T07:51:31.388Z,14.78
2018-04-08T07:52:31.428Z,14.82
2018-04-08T07:53:31.395Z,14.96
2018-04-08T07:54:31.373Z,14.96
2018-04-08T07:55:31.396Z,14.89
2018-04-08T07:56:31.352Z,14.95
2018-04-08T07:57:31.435Z,14.91
2018-04-08T07:58:31.430Z,14.89
2018-04-08T07:59:31.379Z,14.84
2018-04-08T08:00:31.442Z,14.95
2018-04-08T08:01:31.326Z,15.02
2018-04-08T08:02:31.437Z,15.07
2018-04-08T08:03:31.404Z,15.13
2018-04-08T08:04:31.386Z,15.21
2018-04-08T08:05:31.404Z,15.31
2018-04-08T08:06:31.442Z,15.40
2018-04-08T08:07:31.444Z,15.44
2018-04-08T08:08:31.369Z,15.48
2018-04-08T08:09:31.448Z,15.53
2018-04-08T08:10:31.452Z,15.66
2018-04-08T08:11:31.469Z,15.88
2018-04-08T08:12:31.451Z,16.03
2018-04-08T08:13:31.362Z,16.16
2018-04-08T08:14:31.417Z,16.28
2018-04-08T08:15:31.426Z,16.29
2018-04-08T08:16:31.471Z,16.35
2018-04-08T08:17:31.497Z,16.38
2018-04-08T08:18:31.456Z,16.44
2018-04-08T08:19:31.356Z,16.48
2018-04-08T08:20:31.420Z,16.61
2018-04-08T08:21:31.434Z,16.50
2018-04-08T08:22:31.463Z,16.47
2018-04-08T08:23:31.465Z,16.47
2018-04-08T08:24:31.385Z,16.57
2018-04-08T08:25:31.444Z,16.66
2018-04-08T08:26:31.421Z,16.65
2018-04-08T08:27:31.365Z,16.79
2018-04-08T08:28:31.435Z,16.90
2018-04-08T08:29:31.477Z,17.03
2018-04-08T08:30:31.433Z,17.03
2018-04-08T08:31:31.401Z,16.99
2018-04-08T08:32:31.488Z,17.08
2018-04-08T08:33:31.388Z,16.99
2018-04-08T08:34:31.369Z,17.08
2018-04-08T08:35:31.493Z,17.18
2018-04-08T08:36:31.493Z,17.05
2018-04-08T08:37:31.471Z,17.12
2018-04-08T08:38:31.371Z,17.31
2018-04-08T08:39:31.471Z,17.42
2018-04-08T08:40:31.401Z,17.37
2018-04-08T08:41:31.407Z,17.40
2018-04-08T08:42:31.478Z,17.54
2018-04-08T08:43:31.429Z,17.66
2018-04-08T08:44:31.408Z,17.72
2018-04-08T08:45:31.473Z,17.61
2018-04-08T08:46:31.406Z,17.53
2018-04-08T08:47:31.407Z,17.83
2018-04-08T08:48:31.477Z,17.95
2018-04-08T08:49:31.441Z,17.84
2018-04-08T08:50:31.403Z,17.83
2018-04-08T08:51:31.513Z,18.00
2018-04-08T08:52:31.442Z,17.87
2018-04-08T08:53:31.453Z,17.95
2018-04-08T08:54:31.452Z,17.94
2018-04-08T08:55:31.438Z,18.13
2018-04-08T08:56:31.481Z,18.13
2018-04-08T08:57:31.438Z,18.21
2018-04-08T08:58:31.453Z,18.34
2018-04-08T08:59:31.403Z,18.35
2018-04-08T09:00:31.617Z,18.55
2018-04-08T09:01:31.450Z,18.61
2018-04-08T09:02:31.514Z,18.48
2018-04-08T09:03:31.505Z,18.55
2018-04-08T09:04:31.391Z,18.72
2018-04-08T09:05:31.517Z,18.73
2018-04-08T09:06:31.414Z,18.68
2018-04-08T09:07:31.454Z,18.90
2018-04-08T09:08:31.446Z,19.06
2018-04-08T09:09:31.487Z,18.99
2018-04-08T09:10:31.419Z,18.94
2018-04-08T09:11:31.520Z,18.97
2018-04-08T09:12:31.492Z,18.99
2018-04-08T09:13:31.423Z,19.17
2018-04-08T09:14:31.495Z,19.32
2018-04-08T09:15:31.427Z,19.24
2018-04-08T09:16:31.495Z,19.39
2018-04-08T09:17:31.477Z,19.27
2018-04-08T09:18:31.429Z,19.24
2018-04-08T09:19:31.461Z,19.31
2018-04-08T09:20:31.525Z,19.39
2018-04-08T09:21:31.456Z,19.36
2018-04-08T09:22:31.471Z,19.28
2018-04-08T09:23:31.498Z,19.42
2018-04-08T09:24:31.520Z,19.44
2018-04-08T09:25:31.532Z,19.51
2018-04-08T09:26:31.534Z,19.61
2018-04-08T09:27:31.446Z,19.76
2018-04-08T09:28:31.544Z,19.87
2018-04-08T09:29:31.503Z,19.94
2018-04-08T09:30:31.540Z,20.14
2018-04-08T09:31:31.486Z,20.36
2018-04-08T09:32:31.459Z,20.38
2018-04-08T09:33:31.410Z,20.52
2018-04-08T09:34:31.504Z,20.64
2018-04-08T09:35:31.486Z,20.58
2018-04-08T09:36:31.426Z,20.64
2018-04-08T09:37:31.475Z,20.65
2018-04-08T09:38:31.511Z,20.87
2018-04-08T09:39:31.528Z,20.98
2018-04-08T09:40:31.531Z,21.20
2018-04-08T09:41:31.479Z,21.42
2018-04-08T09:42:31.509Z,21.65
2018-04-08T09:43:31.551Z,21.71
2018-04-08T09:44:31.485Z,21.80
2018-04-08T09:45:31.542Z,21.76
2018-04-08T09:46:31.510Z,21.54
2018-04-08T09:47:31.478Z,21.58
2018-04-08T09:48:31.417Z,21.45
2018-04-08T09:49:31.471Z,21.42
2018-04-08T09:50:31.518Z,21.43
2018-04-08T09:51:31.515Z,21.60
2018-04-08T09:52:31.514Z,21.71
2018-04-08T09:53:31.451Z,21.89
2018-04-08T09:54:31.516Z,22.16
2018-04-08T09:55:31.448Z,22.32
2018-04-08T09:56:31.522Z,22.14
2018-04-08T09:57:31.453Z,22.06
2018-04-08T09:58:31.450Z,22.08
2018-04-08T09:59:31.484Z,21.89
2018-04-08T10:00:31.442Z,22.16
2018-04-08T10:01:31.429Z,22.41
2018-04-08T10:02:31.486Z,22.64
2018-04-08T10:03:31.506Z,22.72
2018-04-08T10:04:31.434Z,22.79
2018-04-08T10:05:31.530Z,22.39
2018-04-08T10:06:31.481Z,22.38
2018-04-08T10:07:31.548Z,22.34
2018-04-08T10:08:31.527Z,22.23
2018-04-08T10:09:31.529Z,22.14
2018-04-08T10:10:31.527Z,22.21
2018-04-08T10:11:31.462Z,22.43
2018-04-08T10:12:31.454Z,22.75
2018-04-08T10:13:31.462Z,22.93
2018-04-08T10:14:31.465Z,23.15
2018-04-08T10:15:31.531Z,23.23
2018-04-08T10:16:31.467Z,23.37
2018-04-08T10:17:31.521Z,23.61
2018-04-08T10:18:31.533Z,23.83
2018-04-08T10:19:31.468Z,24.02
2018-04-08T10:20:31.468Z,24.14
2018-04-08T10:21:31.535Z,24.07
2018-04-08T10:22:31.534Z,23.96
2018-04-08T10:23:31.471Z,24.01
2018-04-08T10:24:31.469Z,23.80
2018-04-08T10:25:31.542Z,23.85
2018-04-08T10:26:31.419Z,23.74
2018-04-08T10:27:31.468Z,23.61
2018-04-08T10:28:31.517Z,23.69
2018-04-08T10:29:31.539Z,23.85
2018-04-08T10:30:31.572Z,23.94
2018-04-08T10:31:31.460Z,24.11
2018-04-08T10:32:31.507Z,24.00
2018-04-08T10:33:31.523Z,23.97
2018-04-08T10:34:31.504Z,24.12
2018-04-08T10:35:31.568Z,24.34
2018-04-08T10:36:31.451Z,24.26
2018-04-08T10:37:31.511Z,24.29
2018-04-08T10:38:31.518Z,24.34
2018-04-08T10:39:31.550Z,24.34
2018-04-08T10:40:31.605Z,24.56
2018-04-08T10:41:31.585Z,24.72
2018-04-08T10:42:31.547Z,24.95
2018-04-08T10:43:31.526Z,24.81
2018-04-08T10:44:31.516Z,24.20
2018-04-08T10:45:31.526Z,24.16
2018-04-08T10:46:31.516Z,23.75
2018-04-08T10:47:31.471Z,23.68
2018-04-08T10:48:31.550Z,23.89
2018-04-08T10:49:31.529Z,23.90
2018-04-08T10:50:31.454Z,24.07
2018-04-08T10:51:31.529Z,24.07
2018-04-08T10:52:31.455Z,24.20
2018-04-08T10:53:31.460Z,24.44
2018-04-08T10:54:31.533Z,24.45
2018-04-08T10:55:31.558Z,24.42
2018-04-08T10:56:31.453Z,24.30
2018-04-08T10:57:31.582Z,24.22
2018-04-08T10:58:31.586Z,24.27
2018-04-08T10:59:31.576Z,24.57
2018-04-08T11:00:31.463Z,24.83
2018-04-08T11:01:31.557Z,24.63
2018-04-08T11:02:31.591Z,24.49
2018-04-08T11:03:31.521Z,24.68
2018-04-08T11:04:31.580Z,24.93
2018-04-08T11:05:31.514Z,25.05
2018-04-08T11:06:31.540Z,25.06
2018-04-08T11:07:31.583Z,25.23
2018-04-08T11:08:31.571Z,25.26
2018-04-08T11:09:31.448Z,25.30
2018-04-08T11:10:31.476Z,25.22
2018-04-08T11:11:31.431Z,25.19
2018-04-08T11:12:31.466Z,24.68
2018-04-08T11:13:31.485Z,24.47
2018-04-08T11:14:31.523Z,23.90
2018-04-08T11:15:31.567Z,23.90
2018-04-08T11:16:31.552Z,24.01
2018-04-08T11:17:31.450Z,24.14
2018-04-08T11:18:31.559Z,24.37
2018-04-08T11:19:31.543Z,24.77
2018-04-08T11:20:31.608Z,25.06
2018-04-08T11:21:31.596Z,25.31
2018-04-08T11:22:31.539Z,25.51
2018-04-08T11:23:31.591Z,25.63
2018-04-08T11:24:31.573Z,25.84
2018-04-08T11:25:31.608Z,25.64
2018-04-08T11:26:31.603Z,25.89
2018-04-08T11:27:31.576Z,25.70
2018-04-08T11:28:31.533Z,25.57
2018-04-08T11:29:31.575Z,25.44
2018-04-08T11:30:31.511Z,25.40
2018-04-08T11:31:31.606Z,25.42
2018-04-08T11:32:31.510Z,25.55
2018-04-08T11:33:31.578Z,25.33
2018-04-08T11:34:31.576Z,25.29
2018-04-08T11:35:31.517Z,25.44
2018-04-08T11:36:31.514Z,25.67
2018-04-08T11:37:31.584Z,25.52
2018-04-08T11:38:31.548Z,25.42
2018-04-08T11:39:31.581Z,25.53
2018-04-08T11:40:31.538Z,25.11
2018-04-08T11:41:31.551Z,25.38
2018-04-08T11:42:31.590Z,25.62
2018-04-08T11:43:31.542Z,25.95
2018-04-08T11:44:31.502Z,26.04
2018-04-08T11:45:31.716Z,26.17
2018-04-08T11:46:31.554Z,26.15
2018-04-08T11:48:31.608Z,25.81
2018-04-08T11:49:31.471Z,25.93
2018-04-08T11:50:31.584Z,26.00
2018-04-08T11:51:31.595Z,25.80
2018-04-08T11:52:31.552Z,25.59
2018-04-08T11:53:31.591Z,25.80
2018-04-08T11:54:31.592Z,25.99
2018-04-08T11:55:31.522Z,26.03
2018-04-08T11:56:31.557Z,26.14
2018-04-08T11:57:31.527Z,26.34
2018-04-08T11:58:31.547Z,26.26
2018-04-08T11:59:31.619Z,26.24
2018-04-08T12:00:31.553Z,26.41
2018-04-08T12:01:31.621Z,26.43
2018-04-08T12:02:31.563Z,26.22
2018-04-08T12:03:31.570Z,25.88
2018-04-08T12:04:31.638Z,25.51
2018-04-08T12:05:31.520Z,25.27
2018-04-08T12:06:31.506Z,25.20
2018-04-08T12:07:31.567Z,25.31
2018-04-08T12:08:31.569Z,25.52
2018-04-08T12:09:31.519Z,25.56
2018-04-08T12:10:31.555Z,25.73
2018-04-08T12:11:31.578Z,25.73
2018-04-08T12:12:31.604Z,25.81
2018-04-08T12:13:31.525Z,26.04
2018-04-08T12:14:31.563Z,26.06
2018-04-08T12:15:31.603Z,25.96
2018-04-08T12:16:31.610Z,26.11
2018-04-08T12:17:31.525Z,26.08
2018-04-08T12:18:31.574Z,25.89
2018-04-08T12:19:31.574Z,25.89
2018-04-08T12:20:31.606Z,25.93
2018-04-08T12:21:31.528Z,26.18
2018-04-08T12:22:31.576Z,26.37
2018-04-08T12:23:31.580Z,26.33
2018-04-08T12:24:31.561Z,26.55
2018-04-08T12:25:31.673Z,26.19
2018-04-08T12:26:31.513Z,25.97
2018-04-08T12:27:31.646Z,25.77
2018-04-08T12:29:31.581Z,26.03
2018-04-08T12:30:31.595Z,26.08
2018-04-08T12:31:31.595Z,26.07
2018-04-08T12:32:31.538Z,26.02
2018-04-08T12:33:31.506Z,26.14
2018-04-08T12:34:31.572Z,26.04
2018-04-08T12:35:31.608Z,26.07
2018-04-08T12:36:31.596Z,26.29
2018-04-08T12:37:31.604Z,26.19
2018-04-08T12:38:31.598Z,26.17
2018-04-08T12:39:31.536Z,26.24
2018-04-08T12:40:31.616Z,26.51
2018-04-08T12:41:31.657Z,26.81
2018-04-08T12:42:31.641Z,26.79
2018-04-08T12:43:31.672Z,26.54
2018-04-08T12:44:31.661Z,26.41
2018-04-08T12:45:31.601Z,26.52
2018-04-08T12:46:31.599Z,26.55
2018-04-08T12:47:31.583Z,26.79
2018-04-08T12:48:31.529Z,27.10
2018-04-08T12:49:31.593Z,26.99
2018-04-08T12:50:31.623Z,27.07
2018-04-08T12:51:31.518Z,27.25
2018-04-08T12:52:31.513Z,27.12
2018-04-08T12:53:31.577Z,27.26
2018-04-08T12:54:31.611Z,27.43
2018-04-08T12:55:31.613Z,27.22
2018-04-08T12:56:31.617Z,27.40
2018-04-08T12:57:31.530Z,27.68
2018-04-08T12:58:31.586Z,27.75
2018-04-08T12:59:31.582Z,27.46
2018-04-08T13:00:31.667Z,27.32
2018-04-08T13:01:31.662Z,27.28
2018-04-08T13:02:31.536Z,27.39
2018-04-08T13:03:31.655Z,27.48
2018-04-08T13:04:31.598Z,27.62
2018-04-08T13:05:31.542Z,27.85
2018-04-08T13:06:31.655Z,28.04
2018-04-08T13:07:31.544Z,28.24
2018-04-08T13:08:31.642Z,28.33